Heisler, Canada
Current Conditions -  °F | °C
As of 11:39 PM on Wednesday 26 Nov 2014 (Local Time) from CYEG Reporting Station
Light Snow Light Snow  
Wind Chill:   Ceiling: 1000
Heat Index: 18°   Visibility: 8mi
Dew Point: 16°   Wind: 8mph
Humidity: 93%   Direction: 20°NNE
Pressure: 30.05"   Gusts: NA
Location:  52.67°N, 112.2°W
Report Text: CYEG 270639Z 02007KT 8SM -SN OVC010 M08/M09 A3005 RMK SC8 SLP227
Loading
Personal Weather Stations






























Interactive Weather Map New forecast layout! Learn more

10-Day Weather Forecast

Advertisements
Track Severe Weather on mobile